createdAt,value
2019-05-11T00:00:07.820Z,82.40
2019-05-11T00:02:37.447Z,81.90
2019-05-11T00:05:07.214Z,81.60
2019-05-11T00:07:36.751Z,81.60
2019-05-11T00:10:06.947Z,81.50
2019-05-11T00:12:36.435Z,81.50
2019-05-11T00:15:06.411Z,82.10
2019-05-11T00:17:36.034Z,82.30
2019-05-11T00:20:07.865Z,81.50
2019-05-11T00:22:37.467Z,81.10
2019-05-11T00:25:08.092Z,81.20
2019-05-11T00:27:37.771Z,81.50
2019-05-11T00:30:07.879Z,81.90
2019-05-11T00:32:37.535Z,81.40
2019-05-11T00:35:08.251Z,81.00
2019-05-11T00:37:37.696Z,81.00
2019-05-11T00:40:14.240Z,80.80
2019-05-11T00:42:38.777Z,81.10
2019-05-11T00:45:08.703Z,81.10
2019-05-11T00:47:38.240Z,81.70
2019-05-11T00:50:08.727Z,81.00
2019-05-11T00:52:38.267Z,81.00
2019-05-11T00:55:08.179Z,81.40
2019-05-11T00:57:37.661Z,81.70
2019-05-11T01:00:08.674Z,81.30
2019-05-11T01:02:38.287Z,81.30
2019-05-11T01:05:08.537Z,81.10
2019-05-11T01:07:38.123Z,80.90
2019-05-11T01:10:21.885Z,80.50
2019-05-11T01:12:39.078Z,80.50
2019-05-11T01:15:09.302Z,80.40
2019-05-11T01:17:38.746Z,80.80
2019-05-11T01:20:08.371Z,80.70
2019-05-11T01:22:37.814Z,80.40
2019-05-11T01:25:07.958Z,80.20
2019-05-11T01:27:37.559Z,80.30
2019-05-11T01:30:08.235Z,80.10
2019-05-11T01:32:37.878Z,80.50
2019-05-11T01:35:08.380Z,79.90
2019-05-11T01:37:37.973Z,80.40
2019-05-11T01:40:09.124Z,80.30
2019-05-11T01:42:38.679Z,80.20
2019-05-11T01:45:08.452Z,80.20
2019-05-11T01:47:38.011Z,80.20
2019-05-11T01:50:07.620Z,80.10
2019-05-11T01:52:37.163Z,80.00
2019-05-11T01:55:06.991Z,80.50
2019-05-11T01:57:36.435Z,80.50
2019-05-11T02:00:07.460Z,80.10
2019-05-11T02:02:37.135Z,80.10
2019-05-11T02:05:25.054Z,79.90
2019-05-11T02:07:54.637Z,80.00
2019-05-11T02:10:24.449Z,79.90
2019-05-11T02:12:54.102Z,80.10
2019-05-11T02:15:23.718Z,81.10
2019-05-11T02:17:53.340Z,81.00
2019-05-11T02:20:22.948Z,81.00
2019-05-11T02:22:52.390Z,81.30
2019-05-11T02:25:21.998Z,82.50
2019-05-11T02:27:51.543Z,82.60
2019-05-11T02:30:21.134Z,83.40
2019-05-11T02:32:50.616Z,83.50
2019-05-11T02:35:20.125Z,82.80
2019-05-11T02:37:49.669Z,82.50
2019-05-11T02:40:19.586Z,82.30
2019-05-11T02:42:49.211Z,82.70
2019-05-11T02:45:21.723Z,83.10
2019-05-11T02:47:51.265Z,83.30
2019-05-11T02:50:20.823Z,85.50
2019-05-11T02:52:50.412Z,86.50
2019-05-11T02:55:19.880Z,86.40
2019-05-11T02:57:49.396Z,86.70
2019-05-11T03:00:21.943Z,87.40
2019-05-11T03:02:51.419Z,87.10
2019-05-11T03:05:21.040Z,86.60
2019-05-11T03:07:50.527Z,86.20
2019-05-11T03:10:20.143Z,85.70
2019-05-11T03:12:49.623Z,86.70
2019-05-11T03:15:19.235Z,87.20
2019-05-11T03:17:48.689Z,87.80
2019-05-11T03:20:18.306Z,88.20
2019-05-11T03:22:47.892Z,88.80
2019-05-11T03:25:17.440Z,89.30
2019-05-11T03:27:46.878Z,89.10
2019-05-11T03:30:16.603Z,89.90
2019-05-11T03:32:46.180Z,90.30
2019-05-11T03:35:15.797Z,90.20
2019-05-11T03:37:45.271Z,90.20
2019-05-11T03:40:14.985Z,90.20
2019-05-11T03:42:44.605Z,89.90
2019-05-11T03:45:14.314Z,90.80
2019-05-11T03:47:43.939Z,90.70
2019-05-11T03:50:14.554Z,90.50
2019-05-11T03:52:45.099Z,90.10
2019-05-11T03:55:14.823Z,89.70
2019-05-11T03:57:44.328Z,89.50
2019-05-11T04:00:14.540Z,89.50
2019-05-11T04:02:44.054Z,89.60
2019-05-11T04:05:13.665Z,89.70
2019-05-11T04:07:43.292Z,89.10
2019-05-11T04:10:13.023Z,89.50
2019-05-11T04:12:42.552Z,89.30
2019-05-11T04:15:12.163Z,88.60
2019-05-11T04:17:41.720Z,88.50
2019-05-11T04:20:11.330Z,88.10
2019-05-11T04:22:40.771Z,88.30
2019-05-11T04:25:10.583Z,88.50
2019-05-11T04:27:40.102Z,89.30
2019-05-11T04:30:10.009Z,89.10
2019-05-11T04:32:39.516Z,89.10
2019-05-11T04:35:10.099Z,89.50
2019-05-11T04:37:39.616Z,89.60
2019-05-11T04:40:09.242Z,89.40
2019-05-11T04:42:54.569Z,89.60
2019-05-11T04:45:11.623Z,90.30
2019-05-11T04:47:41.140Z,89.80
2019-05-11T04:50:10.863Z,89.10
2019-05-11T04:52:40.383Z,88.70
2019-05-11T04:55:09.963Z,89.20
2019-05-11T04:57:39.647Z,89.20
2019-05-11T05:00:09.540Z,88.90
2019-05-11T05:02:39.087Z,88.30
2019-05-11T05:05:08.671Z,88.60
2019-05-11T05:07:48.146Z,88.10
2019-05-11T05:10:14.143Z,87.90
2019-05-11T05:12:40.847Z,87.00
2019-05-11T05:15:10.478Z,88.40
2019-05-11T05:17:39.939Z,87.60
2019-05-11T05:20:09.656Z,86.70
2019-05-11T05:22:39.113Z,85.70
2019-05-11T05:25:08.897Z,85.30
2019-05-11T05:27:38.516Z,85.00
2019-05-11T05:30:08.904Z,84.60
2019-05-11T05:32:38.506Z,83.90
2019-05-11T05:35:08.283Z,83.60
2019-05-11T05:37:37.797Z,84.00
2019-05-11T05:40:07.471Z,83.90
2019-05-11T05:42:36.915Z,86.60
2019-05-11T05:45:07.432Z,86.20
2019-05-11T05:47:36.878Z,86.70
2019-05-11T05:50:06.898Z,88.70
2019-05-11T05:52:36.339Z,90.10
2019-05-11T05:55:06.771Z,90.20
2019-05-11T05:57:36.283Z,89.50
2019-05-11T06:00:07.286Z,90.10
2019-05-11T06:02:36.744Z,90.50
2019-05-11T06:05:07.911Z,89.50
2019-05-11T06:07:37.359Z,88.20
2019-05-11T06:10:09.975Z,88.50
2019-05-11T06:12:39.511Z,88.10
2019-05-11T06:15:09.319Z,89.10
2019-05-11T06:17:38.910Z,89.70
2019-05-11T06:20:09.210Z,88.80
2019-05-11T06:22:38.859Z,87.80
2019-05-11T06:25:08.567Z,89.30
2019-05-11T06:27:38.018Z,88.60
2019-05-11T06:30:08.836Z,88.80
2019-05-11T06:32:38.355Z,88.50
2019-05-11T06:35:08.562Z,88.70
2019-05-11T06:37:38.133Z,87.90
2019-05-11T06:40:08.312Z,86.80
2019-05-11T06:42:37.792Z,87.20
2019-05-11T06:45:07.512Z,86.20
2019-05-11T06:47:37.070Z,85.50
2019-05-11T06:50:07.171Z,86.00
2019-05-11T06:52:36.687Z,86.10
2019-05-11T06:55:06.410Z,87.60
2019-05-11T06:57:35.983Z,87.30
2019-05-11T07:00:06.039Z,85.00
2019-05-11T07:02:35.685Z,86.40
2019-05-11T07:05:07.008Z,87.10
2019-05-11T07:07:47.251Z,86.40
2019-05-11T07:10:08.205Z,87.40
2019-05-11T07:12:37.635Z,86.10
2019-05-11T07:15:07.450Z,87.00
2019-05-11T07:17:37.115Z,85.40
2019-05-11T07:20:10.111Z,85.10
2019-05-11T07:22:39.564Z,84.70
2019-05-11T07:25:09.113Z,84.60
2019-05-11T07:27:38.596Z,82.80
2019-05-11T07:30:08.271Z,82.90
2019-05-11T07:32:38.351Z,85.50
2019-05-11T07:35:09.143Z,83.60
2019-05-11T07:37:38.910Z,82.70
2019-05-11T07:40:09.406Z,82.60
2019-05-11T07:42:39.022Z,81.80
2019-05-11T07:45:09.375Z,82.30
2019-05-11T07:47:39.022Z,83.40
2019-05-11T07:50:08.807Z,82.90
2019-05-11T07:52:38.430Z,82.50
2019-05-11T07:55:08.651Z,82.30
2019-05-11T07:57:39.269Z,82.30
2019-05-11T08:00:10.579Z,84.00
2019-05-11T08:02:40.231Z,83.50
2019-05-11T08:05:10.048Z,84.10
2019-05-11T08:07:39.571Z,82.50
2019-05-11T08:10:09.483Z,81.60
2019-05-11T08:12:39.575Z,82.00
2019-05-11T08:15:13.333Z,80.80
2019-05-11T08:17:40.663Z,82.10
2019-05-11T08:20:11.375Z,80.10
2019-05-11T08:22:41.923Z,80.70
2019-05-11T08:25:11.606Z,81.20
2019-05-11T08:27:41.218Z,78.10
2019-05-11T08:30:12.571Z,79.30
2019-05-11T08:32:42.198Z,78.40
2019-05-11T08:35:11.774Z,77.70
2019-05-11T08:37:41.407Z,76.60
2019-05-11T08:40:11.086Z,76.20
2019-05-11T08:42:40.563Z,76.60
2019-05-11T08:45:20.484Z,75.50
2019-05-11T08:47:41.649Z,74.80
2019-05-11T08:50:14.743Z,73.50
2019-05-11T08:52:43.664Z,71.60
2019-05-11T08:55:13.375Z,75.10
2019-05-11T08:57:42.959Z,73.90
2019-05-11T09:00:17.918Z,74.20
2019-05-11T09:02:50.739Z,72.90
2019-05-11T09:05:19.601Z,72.10
2019-05-11T09:07:49.179Z,71.10
2019-05-11T09:10:18.895Z,70.50
2019-05-11T09:12:49.319Z,70.40
2019-05-11T09:15:32.677Z,70.90
2019-05-11T09:17:50.168Z,71.50
2019-05-11T09:20:19.766Z,71.00
2019-05-11T09:22:49.205Z,69.00
2019-05-11T09:25:20.451Z,70.00
2019-05-11T09:27:49.951Z,71.00
2019-05-11T09:30:19.561Z,69.50
2019-05-11T09:32:49.099Z,69.90
2019-05-11T09:35:19.157Z,68.70
2019-05-11T09:37:49.823Z,69.80
2019-05-11T09:40:19.448Z,72.70
2019-05-11T09:42:48.951Z,71.90
2019-05-11T09:45:18.914Z,71.30
2019-05-11T09:47:49.583Z,72.30
2019-05-11T09:50:19.177Z,71.60
2019-05-11T09:52:49.172Z,71.60
2019-05-11T09:55:20.324Z,71.90
2019-05-11T09:57:50.835Z,70.80
2019-05-11T10:00:20.410Z,73.00
2019-05-11T10:02:50.027Z,71.80
2019-05-11T10:05:19.611Z,73.00
2019-05-11T10:07:49.162Z,73.90
2019-05-11T10:10:18.999Z,73.80
2019-05-11T10:12:52.631Z,73.10
2019-05-11T10:15:22.403Z,72.50
2019-05-11T10:17:51.916Z,75.00
2019-05-11T10:20:21.542Z,74.80
2019-05-11T10:22:51.085Z,74.60
2019-05-11T10:25:20.658Z,76.10
2019-05-11T10:27:50.127Z,78.80
2019-05-11T10:30:20.980Z,79.20
2019-05-11T10:32:50.599Z,78.00
2019-05-11T10:35:20.049Z,78.50
2019-05-11T10:37:49.719Z,76.10
2019-05-11T10:40:19.301Z,78.30
2019-05-11T10:42:49.898Z,78.20
2019-05-11T10:45:20.831Z,77.40
2019-05-11T10:47:53.846Z,79.30
2019-05-11T10:50:21.659Z,78.20
2019-05-11T10:52:51.200Z,77.50
2019-05-11T10:55:20.744Z,75.20
2019-05-11T10:57:50.188Z,75.30
2019-05-11T11:00:21.435Z,75.50
2019-05-11T11:02:51.016Z,74.60
2019-05-11T11:05:20.625Z,75.60
2019-05-11T11:07:50.204Z,73.90
2019-05-11T11:10:19.828Z,73.50
2019-05-11T11:12:49.410Z,73.50
2019-05-11T11:15:21.115Z,74.00
2019-05-11T11:17:50.623Z,74.00
2019-05-11T11:20:20.235Z,72.70
2019-05-11T11:22:49.761Z,74.50
2019-05-11T11:25:19.367Z,73.10
2019-05-11T11:27:48.980Z,72.70
2019-05-11T11:30:19.372Z,72.90
2019-05-11T11:32:48.923Z,69.10
2019-05-11T11:35:18.815Z,69.80
2019-05-11T11:37:48.582Z,69.40
2019-05-11T11:40:18.190Z,70.00
2019-05-11T11:42:47.960Z,71.00
2019-05-11T11:45:20.800Z,68.80
2019-05-11T11:47:50.738Z,69.70
2019-05-11T11:50:20.272Z,69.00
2019-05-11T11:52:49.810Z,67.00
2019-05-11T11:55:19.439Z,68.70
2019-05-11T11:57:50.408Z,71.10
2019-05-11T12:00:21.864Z,71.40
2019-05-11T12:02:51.370Z,69.50
2019-05-11T12:05:20.982Z,69.90
2019-05-11T12:07:50.524Z,68.00
2019-05-11T12:10:20.203Z,68.50
2019-05-11T12:12:49.742Z,69.20
2019-05-11T12:15:20.494Z,69.70
2019-05-11T12:17:50.339Z,69.20
2019-05-11T12:20:19.911Z,69.70
2019-05-11T12:22:49.451Z,69.70
2019-05-11T12:25:19.101Z,69.90
2019-05-11T12:27:49.169Z,71.60
2019-05-11T12:30:20.317Z,72.10
2019-05-11T12:32:50.360Z,70.20
2019-05-11T12:35:19.948Z,69.70
2019-05-11T12:37:49.488Z,68.30
2019-05-11T12:40:19.499Z,67.80
2019-05-11T12:42:49.225Z,66.70
2019-05-11T12:45:18.887Z,68.00
2019-05-11T12:47:49.398Z,69.30
2019-05-11T12:50:20.339Z,69.00
2019-05-11T12:52:49.891Z,70.10
2019-05-11T12:55:19.600Z,68.10
2019-05-11T12:57:49.252Z,69.50
2019-05-11T13:00:20.039Z,69.40
2019-05-11T13:02:49.611Z,70.20
2019-05-11T13:05:19.523Z,70.80
2019-05-11T13:07:49.173Z,73.40
2019-05-11T13:10:18.874Z,70.90
2019-05-11T13:12:49.401Z,70.80
2019-05-11T13:15:20.404Z,71.20
2019-05-11T13:17:49.927Z,71.40
2019-05-11T13:20:19.509Z,68.90
2019-05-11T13:22:49.195Z,68.60
2019-05-11T13:25:18.709Z,69.40
2019-05-11T13:27:49.219Z,69.70
2019-05-11T13:30:19.440Z,69.30
2019-05-11T13:32:49.309Z,68.40
2019-05-11T13:35:18.925Z,68.60
2019-05-11T13:37:48.541Z,70.20
2019-05-11T13:40:18.559Z,68.30
2019-05-11T13:42:48.980Z,68.80
2019-05-11T13:45:18.958Z,68.50
2019-05-11T13:47:55.530Z,68.60
2019-05-11T13:50:20.974Z,67.40
2019-05-11T13:52:50.703Z,68.40
2019-05-11T13:55:20.143Z,69.00
2019-05-11T13:57:49.723Z,68.50
2019-05-11T14:00:19.865Z,68.30
2019-05-11T14:02:49.510Z,68.90
2019-05-11T14:05:19.224Z,67.90
2019-05-11T14:07:49.711Z,68.20
2019-05-11T14:10:19.220Z,69.70
2019-05-11T14:12:48.798Z,68.40
2019-05-11T14:15:19.029Z,70.50
2019-05-11T14:18:04.432Z,69.80
2019-05-11T14:20:20.862Z,69.70
2019-05-11T14:22:50.451Z,71.90
2019-05-11T14:25:20.007Z,71.00
2019-05-11T14:27:49.755Z,72.80
2019-05-11T14:30:19.500Z,70.60
2019-05-11T14:32:49.338Z,70.30
2019-05-11T14:35:19.117Z,72.30
2019-05-11T14:37:48.916Z,70.00
2019-05-11T14:40:18.512Z,72.50
2019-05-11T14:42:48.985Z,71.30
2019-05-11T14:45:19.924Z,70.90
2019-05-11T14:47:49.582Z,70.90
2019-05-11T14:50:19.156Z,70.90
2019-05-11T14:52:49.216Z,70.80
2019-05-11T14:55:18.771Z,71.30
2019-05-11T14:57:48.854Z,71.20
2019-05-11T15:00:19.353Z,71.60
2019-05-11T15:02:49.933Z,71.70
2019-05-11T15:05:21.057Z,73.30
2019-05-11T15:07:52.838Z,74.20
2019-05-11T15:10:23.079Z,72.70
2019-05-11T15:12:52.682Z,73.00
2019-05-11T15:15:22.301Z,72.90
2019-05-11T15:17:51.973Z,72.60
2019-05-11T15:20:21.575Z,72.60
2019-05-11T15:22:51.100Z,72.50
2019-05-11T15:25:20.723Z,72.00
2019-05-11T15:27:51.314Z,71.50
2019-05-11T15:30:21.107Z,71.20
2019-05-11T15:32:50.650Z,73.50
2019-05-11T15:35:20.168Z,71.40
2019-05-11T15:37:49.904Z,71.30
2019-05-11T15:40:21.607Z,70.90
2019-05-11T15:42:51.162Z,70.80
2019-05-11T15:45:20.832Z,71.30
2019-05-11T15:47:50.305Z,70.60
2019-05-11T15:50:20.278Z,69.70
2019-05-11T15:52:53.354Z,71.20
2019-05-11T15:55:23.035Z,71.00
2019-05-11T15:57:52.506Z,71.50
2019-05-11T16:00:22.279Z,71.40
2019-05-11T16:02:51.838Z,71.00
2019-05-11T16:05:21.521Z,73.20
2019-05-11T16:07:51.069Z,72.30
2019-05-11T16:10:20.683Z,73.90
2019-05-11T16:12:50.355Z,74.80
2019-05-11T16:15:19.966Z,79.00
2019-05-11T16:17:49.917Z,79.00
2019-05-11T16:20:19.695Z,78.50
2019-05-11T16:22:49.387Z,77.40
2019-05-11T16:25:19.606Z,77.90
2019-05-11T16:27:49.737Z,78.10
2019-05-11T16:30:21.647Z,77.90
2019-05-11T16:32:50.866Z,79.40
2019-05-11T16:35:20.478Z,81.70
2019-05-11T16:37:50.123Z,80.30
2019-05-11T16:40:20.939Z,81.60
2019-05-11T16:42:50.735Z,81.10
2019-05-11T16:45:23.585Z,79.40
2019-05-11T16:47:51.564Z,77.70
2019-05-11T16:50:21.138Z,77.20
2019-05-11T16:52:50.538Z,76.70
2019-05-11T16:55:20.166Z,77.20
2019-05-11T16:57:49.815Z,77.00
2019-05-11T17:00:19.625Z,77.20
2019-05-11T17:02:49.418Z,76.90
2019-05-11T17:05:26.575Z,76.90
2019-05-11T17:07:50.239Z,76.00
2019-05-11T17:10:19.968Z,76.70
2019-05-11T17:12:49.543Z,75.90
2019-05-11T17:15:19.361Z,75.00
2019-05-11T17:17:50.108Z,74.60
2019-05-11T17:20:19.795Z,74.80
2019-05-11T17:22:49.457Z,75.10
2019-05-11T17:25:19.643Z,74.90
2019-05-11T17:27:50.279Z,74.50
2019-05-11T17:30:20.079Z,75.00
2019-05-11T17:32:50.026Z,74.60
2019-05-11T17:35:19.629Z,74.10
2019-05-11T17:37:50.222Z,74.80
2019-05-11T17:40:23.375Z,74.80
2019-05-11T17:42:53.954Z,75.20
2019-05-11T17:45:23.030Z,75.10
2019-05-11T17:47:52.635Z,75.70
2019-05-11T17:50:22.250Z,75.50
2019-05-11T17:52:51.690Z,75.80
2019-05-11T17:55:21.319Z,75.40
2019-05-11T17:57:53.957Z,75.90
2019-05-11T18:00:22.286Z,75.60
2019-05-11T18:02:51.987Z,76.10
2019-05-11T18:05:21.685Z,77.00
2019-05-11T18:07:51.314Z,77.30
2019-05-11T18:10:20.948Z,78.30
2019-05-11T18:12:50.573Z,79.90
2019-05-11T18:15:20.168Z,81.50
2019-05-11T18:17:49.800Z,81.30
2019-05-11T18:20:22.023Z,83.50
2019-05-11T18:22:50.972Z,86.10
2019-05-11T18:25:20.660Z,86.90
2019-05-11T18:27:50.196Z,88.30
2019-05-11T18:30:20.776Z,90.00
2019-05-11T18:32:50.323Z,90.40
2019-05-11T18:35:19.986Z,91.40
2019-05-11T18:37:50.682Z,92.50
2019-05-11T18:40:20.193Z,90.10
2019-05-11T18:42:50.735Z,94.60
2019-05-11T18:45:20.252Z,91.20
2019-05-11T18:47:49.867Z,90.40
2019-05-11T18:50:29.939Z,90.60
2019-05-11T18:52:50.746Z,90.90
2019-05-11T18:55:20.549Z,90.60
2019-05-11T18:57:50.257Z,90.50
2019-05-11T19:00:20.058Z,90.80
2019-05-11T19:02:49.942Z,90.40
2019-05-11T19:05:19.817Z,92.00
2019-05-11T19:07:49.510Z,90.20
2019-05-11T19:10:19.139Z,92.20
2019-05-11T19:12:49.183Z,90.80
2019-05-11T19:15:19.353Z,90.20
2019-05-11T19:17:49.497Z,91.00
2019-05-11T19:20:19.370Z,91.50
2019-05-11T19:22:49.080Z,90.10
2019-05-11T19:25:18.839Z,90.90
2019-05-11T19:27:50.732Z,90.30
2019-05-11T19:30:20.336Z,91.00
2019-05-11T19:32:50.108Z,89.60
2019-05-11T19:35:21.268Z,89.30
2019-05-11T19:37:51.293Z,87.70
2019-05-11T19:40:21.054Z,88.50
2019-05-11T19:42:53.827Z,87.40
2019-05-11T19:45:24.233Z,82.80
2019-05-11T19:47:53.994Z,79.60
2019-05-11T19:50:23.762Z,78.80
2019-05-11T19:52:53.668Z,77.20
2019-05-11T19:55:23.479Z,79.70
2019-05-11T19:57:53.117Z,79.00
2019-05-11T20:00:22.925Z,78.80
2019-05-11T20:02:52.701Z,78.60
2019-05-11T20:05:22.454Z,79.80
2019-05-11T20:07:52.172Z,79.80
2019-05-11T20:10:21.910Z,78.80
2019-05-11T20:12:51.544Z,78.00
2019-05-11T20:15:21.294Z,75.10
2019-05-11T20:17:51.005Z,72.50
2019-05-11T20:20:20.713Z,74.10
2019-05-11T20:22:50.538Z,72.70
2019-05-11T20:25:20.250Z,73.20
2019-05-11T20:27:49.961Z,73.10
2019-05-11T20:30:19.854Z,74.30
2019-05-11T20:32:49.647Z,74.30
2019-05-11T20:35:19.361Z,71.90
2019-05-11T20:37:49.133Z,71.50
2019-05-11T20:40:18.946Z,72.30
2019-05-11T20:42:48.836Z,72.10
2019-05-11T20:45:19.749Z,76.20
2019-05-11T20:47:49.526Z,74.20
2019-05-11T20:50:19.256Z,75.60
2019-05-11T20:52:49.265Z,76.50
2019-05-11T20:55:19.013Z,78.80
2019-05-11T20:57:48.810Z,77.60
2019-05-11T21:00:19.092Z,76.20
2019-05-11T21:02:49.244Z,74.20
2019-05-11T21:05:19.049Z,77.30
2019-05-11T21:07:48.798Z,80.10
2019-05-11T21:10:18.611Z,79.20
2019-05-11T21:12:48.354Z,82.60
2019-05-11T21:15:18.103Z,78.90
2019-05-11T21:17:50.545Z,78.50
2019-05-11T21:20:19.734Z,77.10
2019-05-11T21:22:49.534Z,79.10
2019-05-11T21:25:19.333Z,82.70
2019-05-11T21:27:49.062Z,85.20
2019-05-11T21:30:19.106Z,86.90
2019-05-11T21:32:48.807Z,87.00
2019-05-11T21:35:19.320Z,89.00
2019-05-11T21:37:49.250Z,88.80
2019-05-11T21:40:18.997Z,89.30
2019-05-11T21:42:48.628Z,89.20
2019-05-11T21:45:18.609Z,88.80
2019-05-11T21:47:49.070Z,89.20
2019-05-11T21:50:19.311Z,90.00
2019-05-11T21:52:49.273Z,90.00
2019-05-11T21:55:19.982Z,89.40
2019-05-11T21:57:49.880Z,88.80
2019-05-11T22:00:21.573Z,89.10
2019-05-11T22:02:52.866Z,89.30
2019-05-11T22:05:22.660Z,89.50
2019-05-11T22:07:52.541Z,90.50
2019-05-11T22:10:22.307Z,90.50
2019-05-11T22:12:51.933Z,90.20
2019-05-11T22:15:21.630Z,90.70
2019-05-11T22:17:51.222Z,90.60
2019-05-11T22:20:21.065Z,91.00
2019-05-11T22:22:50.633Z,90.50
2019-05-11T22:25:20.321Z,90.90
2019-05-11T22:27:50.017Z,90.70
2019-05-11T22:30:19.630Z,90.80
2019-05-11T22:32:49.313Z,90.60
2019-05-11T22:35:18.838Z,90.40
2019-05-11T22:37:49.013Z,90.60
2019-05-11T22:40:18.934Z,90.10
2019-05-11T22:42:48.560Z,89.60
2019-05-11T22:45:18.791Z,88.50
2019-05-11T22:47:48.507Z,90.00
2019-05-11T22:50:18.845Z,90.20
2019-05-11T22:52:48.677Z,88.90
2019-05-11T22:55:18.980Z,88.50
2019-05-11T22:57:48.834Z,88.00
2019-05-11T23:00:39.901Z,87.70
2019-05-11T23:03:11.054Z,87.20
2019-05-11T23:05:41.704Z,86.80
2019-05-11T23:08:11.359Z,87.90
2019-05-11T23:10:40.992Z,87.60
2019-05-11T23:13:11.776Z,87.60
2019-05-11T23:15:42.445Z,88.00
2019-05-11T23:18:12.069Z,87.70
2019-05-11T23:20:41.665Z,88.50
2019-05-11T23:23:11.174Z,88.00
2019-05-11T23:25:40.802Z,87.00
2019-05-11T23:28:10.382Z,87.00
2019-05-11T23:30:41.041Z,87.20
2019-05-11T23:33:10.629Z,89.30
2019-05-11T23:35:40.253Z,89.40
2019-05-11T23:38:09.845Z,89.30
2019-05-11T23:40:39.461Z,89.40
2019-05-11T23:43:09.086Z,90.00
2019-05-11T23:45:38.685Z,89.30
2019-05-11T23:48:09.368Z,88.90
2019-05-11T23:50:38.936Z,88.60
2019-05-11T23:53:10.455Z,89.20
2019-05-11T23:55:40.157Z,88.50
2019-05-11T23:58:09.773Z,87.60
